Time;durP1;ratioP1;P1;durP2;ratioP2;P2;SDS_P1;SDS_P2;PMS_P1;PMS_P2;Temp;Humidity;BMP_temperature;BMP_pressure;BME280_temperature;BME280_humidity;BME280_pressure;Samples;Min_cycle;Max_cycle;Signal;HPM_P1;HPM_P2
2023/05/10 00:00:31;;;;;;;;;1.00;1.00;;;;;17.81;100.00;100811.91;5083806;27;45427;-76
2023/05/10 00:02:56;;;;;;;;;2.00;2.00;;;;;17.72;100.00;100816.75;5102276;27;45232;-76
2023/05/10 00:05:21;;;;;;;;;2.67;2.00;;;;;17.74;100.00;100820.88;5082619;27;63796;-76
2023/05/10 00:07:46;;;;;;;;;1.00;1.00;;;;;17.68;100.00;100821.75;5083694;27;45277;-76
2023/05/10 00:10:12;;;;;;;;;1.00;0.00;;;;;17.65;100.00;100822.19;5083957;27;45460;-76
2023/05/10 00:12:37;;;;;;;;;2.67;2.67;;;;;17.64;100.00;100823.22;5083248;27;54428;-77
2023/05/10 00:15:03;;;;;;;;;2.00;2.00;;;;;17.58;100.00;100818.72;5083498;27;47322;-76
2023/05/10 00:17:29;;;;;;;;;1.00;1.00;;;;;17.53;100.00;100816.69;5083625;27;45263;-76
2023/05/10 00:19:54;;;;;;;;;0.00;0.00;;;;;17.56;100.00;100821.63;5083708;27;45378;-75
2023/05/10 00:22:20;;;;;;;;;2.00;2.00;;;;;17.56;100.00;100823.47;5083246;27;46170;-76
2023/05/10 00:24:46;;;;;;;;;2.00;1.00;;;;;17.49;100.00;100810.13;5101086;27;46208;-76
2023/05/10 00:27:11;;;;;;;;;1.00;1.00;;;;;17.56;100.00;100821.63;5101793;27;45463;-76
2023/05/10 00:29:36;;;;;;;;;1.33;1.00;;;;;17.57;100.00;100825.94;5101793;27;45418;-76
2023/05/10 00:32:02;;;;;;;;;2.00;0.33;;;;;17.57;100.00;100819.78;5101270;27;59890;-76
2023/05/10 00:34:27;;;;;;;;;1.00;0.33;;;;;17.52;100.00;100815.06;5083157;27;47203;-76
2023/05/10 00:36:52;;;;;;;;;3.00;3.00;;;;;17.57;100.00;100827.84;5101446;27;45302;-76
2023/05/10 00:39:17;;;;;;;;;0.33;0.33;;;;;17.58;100.00;100830.31;5101630;27;45307;-76
2023/05/10 00:41:43;;;;;;;;;1.33;1.33;;;;;17.62;100.00;100834.19;5083205;27;46068;-76
2023/05/10 00:44:08;;;;;;;;;2.00;2.00;;;;;17.65;100.00;100832.91;5101251;27;55014;-75
2023/05/10 00:46:34;;;;;;;;;2.33;2.00;;;;;17.66;100.00;100821.16;5100674;27;57710;-76
2023/05/10 00:48:59;;;;;;;;;3.00;1.33;;;;;17.67;100.00;100815.56;5101121;27;45393;-76
2023/05/10 00:51:25;;;;;;;;;1.33;1.33;;;;;17.62;100.00;100814.56;5100901;27;45432;-76
2023/05/10 00:53:51;;;;;;;;;0.00;0.00;;;;;17.56;100.00;100826.16;5082923;27;47223;-76
2023/05/10 00:56:17;;;;;;;;;1.00;1.00;;;;;17.48;100.00;100819.22;5101448;27;45214;-76
2023/05/10 00:58:42;;;;;;;;;1.00;1.00;;;;;17.37;100.00;100829.63;5101580;27;45412;-75
2023/05/10 01:01:09;;;;;;;;;2.00;0.67;;;;;17.35;100.00;100837.09;5099891;27;47168;-75
2023/05/10 01:03:35;;;;;;;;;1.67;0.67;;;;;17.25;100.00;100834.88;5101225;27;46215;-76
2023/05/10 01:06:01;;;;;;;;;0.33;0.33;;;;;17.14;100.00;100838.25;5099367;27;45321;-76
2023/05/10 01:08:26;;;;;;;;;1.00;1.00;;;;;17.15;100.00;100843.41;5100058;27;45489;-75
2023/05/10 01:10:52;;;;;;;;;0.00;0.00;;;;;17.07;100.00;100838.28;5101308;27;45387;-76
2023/05/10 01:13:29;;;;;;;;;1.00;1.00;;;;;17.09;100.00;100844.25;5100995;27;45336;-75
2023/05/10 01:15:55;;;;;;;;;0.33;0.33;;;;;17.15;100.00;100856.03;5101198;27;45487;-76
2023/05/10 01:18:21;;;;;;;;;0.00;0.00;;;;;17.16;100.00;100841.53;5101257;27;45260;-75
2023/05/10 01:20:53;;;;;;;;;1.67;1.00;;;;;17.23;100.00;100847.69;5100644;27;45406;-75
2023/05/10 01:23:36;;;;;;;;;0.67;0.67;;;;;17.22;100.00;100840.69;5099323;27;47125;-76
2023/05/10 01:26:29;;;;;;;;;0.67;0.67;;;;;17.28;100.00;100857.78;5101057;27;45645;-75
2023/05/10 01:29:13;;;;;;;;;0.67;0.67;;;;;17.23;100.00;100850.38;5101068;27;45266;-76
2023/05/10 01:32:00;;;;;;;;;0.00;0.00;;;;;17.29;100.00;100856.75;5094225;27;45301;-75
2023/05/10 01:34:49;;;;;;;;;0.33;0.33;;;;;17.23;100.00;100846.84;5099891;27;46359;-76
2023/05/10 01:37:21;;;;;;;;;0.00;0.00;;;;;17.19;100.00;100837.59;5099615;27;45264;-76
2023/05/10 01:40:06;;;;;;;;;1.33;0.67;;;;;17.17;100.00;100837.81;5082106;27;45403;-75
2023/05/10 01:42:46;;;;;;;;;0.00;0.00;;;;;17.13;100.00;100831.22;5081991;27;47549;-76
2023/05/10 01:45:30;;;;;;;;;0.33;0.33;;;;;17.20;100.00;100841.91;5081923;27;47221;-76
2023/05/10 01:48:06;;;;;;;;;0.67;0.00;;;;;17.12;100.00;100837.66;5082164;27;45359;-76
2023/05/10 01:50:34;;;;;;;;;2.33;1.33;;;;;17.20;100.00;100841.91;5081640;27;45328;-75
2023/05/10 01:53:02;;;;;;;;;0.50;0.50;;;;;17.15;100.00;100851.44;5100427;27;45565;-76
2023/05/10 01:55:31;;;;;;;;;0.00;0.00;;;;;17.18;100.00;100855.56;5081939;27;47430;-76
2023/05/10 01:58:08;;;;;;;;;2.00;2.00;;;;;17.15;100.00;100842.59;5082263;27;45276;-75
2023/05/10 02:00:35;;;;;;;;;1.00;1.00;;;;;17.06;100.00;100838.47;5100453;27;45317;-76
2023/05/10 02:03:04;;;;;;;;;2.00;0.33;;;;;17.13;100.00;100856.25;5100051;27;45256;-76
2023/05/10 02:05:33;;;;;;;;;0.00;0.00;;;;;17.10;100.00;100859.34;5100038;27;45315;-76
2023/05/10 02:08:01;;;;;;;;;1.67;0.00;;;;;17.11;100.00;100865.53;5100162;27;45334;-76
2023/05/10 02:10:27;;;;;;;;;0.00;0.00;;;;;17.08;100.00;100863.25;5100660;27;45187;-76
2023/05/10 02:12:53;;;;;;;;;0.33;0.33;;;;;17.10;100.00;100858.50;5100146;27;45452;-75
2023/05/10 02:15:22;;;;;;;;;0.33;0.33;;;;;17.04;100.00;100857.50;5100160;27;45328;-76
2023/05/10 02:17:48;;;;;;;;;0.00;0.00;;;;;16.99;100.00;100852.75;5081840;27;45283;-75
2023/05/10 02:20:16;;;;;;;;;0.67;0.67;;;;;17.02;100.00;100868.44;5100127;27;45265;-76
2023/05/10 02:22:42;;;;;;;;;0.00;0.00;;;;;16.90;100.00;100867.47;5081748;27;46564;-75
2023/05/10 02:25:09;;;;;;;;;0.33;0.33;;;;;16.90;100.00;100867.47;5081282;27;47753;-76
2023/05/10 02:27:36;;;;;;;;;1.00;1.00;;;;;16.86;100.00;100876.97;5100076;27;45282;-75
2023/05/10 02:30:05;;;;;;;;;0.67;0.33;;;;;16.83;100.00;100877.41;5100016;27;45403;-75
2023/05/10 02:32:30;;;;;;;;;0.33;0.33;;;;;16.85;100.00;100862.72;5100187;27;45359;-76
2023/05/10 02:34:57;;;;;;;;;0.00;0.00;;;;;16.85;100.00;100864.59;5099573;27;46083;-75
2023/05/10 02:37:25;;;;;;;;;1.00;1.00;;;;;16.89;100.00;100869.34;5080218;27;45228;-76
2023/05/10 02:39:53;;;;;;;;;3.00;0.67;;;;;16.91;100.00;100875.31;5099793;27;45240;-75
2023/05/10 02:42:24;;;;;;;;;0.00;0.00;;;;;16.90;100.00;100864.78;5099820;27;45406;-75
2023/05/10 02:44:52;;;;;;;;;0.33;0.33;;;;;16.95;100.00;100877.56;5099823;27;46365;-76
2023/05/10 02:47:18;;;;;;;;;0.00;0.00;;;;;16.87;100.00;100862.50;5083389;27;45307;-75
2023/05/10 02:49:44;;;;;;;;;0.00;0.00;;;;;16.90;100.00;100872.81;5085218;27;45390;-76
2023/05/10 02:52:10;;;;;;;;;0.00;0.00;;;;;16.91;100.00;100863.72;5103160;27;45313;-76
2023/05/10 02:54:44;;;;;;;;;0.33;0.33;;;;;16.94;100.00;100870.56;5084857;27;48104;-75
2023/05/10 02:57:15;;;;;;;;;0.00;0.00;;;;;16.87;100.00;100865.19;5103284;27;45432;-75
2023/05/10 02:59:42;;;;;;;;;0.00;0.00;;;;;16.85;100.00;100873.47;5103421;27;45262;-76
2023/05/10 03:02:09;;;;;;;;;0.00;0.00;;;;;16.86;100.00;100866.25;5103273;27;45287;-76
2023/05/10 03:04:34;;;;;;;;;0.00;0.00;;;;;16.84;100.00;100862.94;5103027;27;46376;-75
2023/05/10 03:07:01;;;;;;;;;0.33;0.33;;;;;16.83;100.00;100864.81;5102922;27;45227;-75
2023/05/10 03:09:26;;;;;;;;;1.67;0.33;;;;;16.81;100.00;100866.88;5084928;27;45464;-75
2023/05/10 03:12:01;;;;;;;;;0.00;0.00;;;;;16.83;100.00;100866.66;5103109;27;45531;-75
2023/05/10 03:14:45;;;;;;;;;0.00;0.00;;;;;16.82;100.00;100863.16;5102971;27;45499;-75
2023/05/10 03:17:51;;;;;;;;;0.33;0.33;;;;;16.83;100.00;100862.13;5084637;27;45358;-75
2023/05/10 03:20:45;;;;;;;;;0.00;0.00;;;;;16.82;100.00;100859.66;5079572;27;45361;-76
2023/05/10 03:23:23;;;;;;;;;0.33;0.33;;;;;16.81;100.00;100855.31;5096750;27;46795;-76
2023/05/10 03:25:50;;;;;;;;;0.33;0.33;;;;;16.82;100.00;100856.97;5083984;27;48387;-76
2023/05/10 03:28:18;;;;;;;;;0.33;0.33;;;;;16.73;100.00;100859.88;5102772;27;45319;-76
2023/05/10 03:30:44;;;;;;;;;0.33;0.33;;;;;16.78;100.00;100861.94;5082388;28;45334;-76
2023/05/10 03:33:10;;;;;;;;;0.00;0.00;;;;;16.81;100.00;100844.56;5082270;28;45414;-76
2023/05/10 03:35:36;;;;;;;;;1.00;0.00;;;;;16.84;100.00;100857.56;5081696;28;45319;-76
2023/05/10 03:38:01;;;;;;;;;0.00;0.00;;;;;16.84;100.00;100855.72;5082285;28;45334;-76
2023/05/10 03:40:31;;;;;;;;;0.67;0.33;;;;;16.85;100.00;100853.88;5063858;28;45372;-75
2023/05/10 03:43:00;;;;;;;;;0.33;0.33;;;;;16.86;100.00;100850.97;5064094;28;47127;-75
2023/05/10 03:45:26;;;;;;;;;0.33;0.33;;;;;16.87;100.00;100854.47;5081844;28;46507;-75
2023/05/10 03:47:52;;;;;;;;;0.00;0.00;;;;;16.97;100.00;100864.75;5081881;28;45560;-76
2023/05/10 03:50:18;;;;;;;;;0.00;0.00;;;;;16.97;100.00;100865.56;5063756;28;45352;-75
2023/05/10 03:52:44;;;;;;;;;0.33;0.33;;;;;16.97;100.00;100854.81;5063718;28;46131;-76
2023/05/10 03:55:09;;;;;;;;;0.00;0.00;;;;;16.94;100.00;100855.25;5063635;28;47985;-76
2023/05/10 03:57:35;;;;;;;;;0.67;0.67;;;;;16.99;100.00;100866.19;5063059;28;45480;-75
2023/05/10 04:00:00;;;;;;;;;0.33;0.33;;;;;16.98;100.00;100851.13;5084945;27;45409;-76
2023/05/10 04:02:26;;;;;;;;;0.00;0.00;;;;;17.00;100.00;100853.59;5102414;27;45309;-75
2023/05/10 04:04:51;;;;;;;;;0.33;0.33;;;;;16.97;100.00;100851.34;5086279;27;59240;-75
2023/05/10 04:07:17;;;;;;;;;0.33;0.33;;;;;17.00;100.00;100857.09;5081659;28;45208;-75
2023/05/10 04:09:43;;;;;;;;;0.33;0.33;;;;;17.00;100.00;100849.03;5081931;28;45409;-76
2023/05/10 04:12:08;;;;;;;;;0.33;0.33;;;;;16.98;100.00;100844.91;5063222;28;47227;-75
2023/05/10 04:14:34;;;;;;;;;1.00;1.00;;;;;16.98;100.00;100845.75;5063398;28;47867;-75
2023/05/10 04:16:59;;;;;;;;;1.00;0.33;;;;;16.93;100.00;100837.50;5081645;28;45314;-76
2023/05/10 04:19:29;;;;;;;;;1.00;0.33;;;;;16.96;100.00;100855.03;5081806;28;45322;-76
2023/05/10 04:21:54;;;;;;;;;0.33;0.33;;;;;16.94;100.00;100863.31;5062832;28;47226;-75
2023/05/10 04:24:20;;;;;;;;;0.33;0.33;;;;;16.86;100.00;100840.25;5080809;28;59342;-76
2023/05/10 04:26:45;;;;;;;;;0.00;0.00;;;;;16.93;100.00;100856.28;5063157;28;45367;-76
2023/05/10 04:29:10;;;;;;;;;1.00;0.33;;;;;16.88;100.00;100843.50;5088998;27;45252;-76
2023/05/10 04:31:36;;;;;;;;;0.33;0.33;;;;;16.92;100.00;100854.66;5101869;27;45477;-76
2023/05/10 04:34:01;;;;;;;;;0.33;0.33;;;;;16.92;100.00;100839.34;5101626;27;45970;-76
2023/05/10 04:36:27;;;;;;;;;0.00;0.00;;;;;16.84;100.00;100849.50;5083163;27;45461;-76
2023/05/10 04:38:53;;;;;;;;;0.33;0.33;;;;;16.89;100.00;100853.22;5101870;27;45259;-76
2023/05/10 04:41:18;;;;;;;;;1.33;1.33;;;;;16.83;100.00;100840.66;5101611;27;45317;-76
2023/05/10 04:43:43;;;;;;;;;1.33;0.33;;;;;16.91;100.00;100842.25;5082901;27;48680;-75
2023/05/10 04:46:09;;;;;;;;;0.67;0.33;;;;;16.95;100.00;100848.88;5101591;27;45433;-75
2023/05/10 04:48:34;;;;;;;;;0.33;0.33;;;;;17.00;100.00;100849.03;5101716;27;45214;-75
2023/05/10 04:50:59;;;;;;;;;0.00;0.00;;;;;17.03;100.00;100848.59;5100044;27;45495;-76
2023/05/10 04:53:25;;;;;;;;;0.33;0.33;;;;;17.04;100.00;100844.06;5093844;27;45977;-76
2023/05/10 04:55:50;;;;;;;;;1.67;1.33;;;;;17.07;100.00;100842.84;5089767;27;45353;-76
2023/05/10 04:58:15;;;;;;;;;0.33;0.33;;;;;17.03;100.00;100837.06;5094981;27;45748;-76
2023/05/10 05:00:42;;;;;;;;;1.67;1.67;;;;;17.08;100.00;100839.09;5101287;27;45479;-76
2023/05/10 05:03:07;;;;;;;;;0.33;0.33;;;;;17.07;100.00;100845.53;5082867;27;48529;-76
2023/05/10 05:05:32;;;;;;;;;1.33;1.00;;;;;17.06;100.00;100844.66;5082683;27;45350;-77
2023/05/10 05:07:58;;;;;;;;;1.33;1.33;;;;;17.11;100.00;100841.34;5082502;27;46239;-77
2023/05/10 05:10:23;;;;;;;;;1.00;0.33;;;;;17.09;100.00;100835.41;5081813;27;48521;-76
2023/05/10 05:12:48;;;;;;;;;2.00;1.00;;;;;17.15;100.00;100842.59;5081499;27;56924;-78
2023/05/10 05:15:15;;;;;;;;;1.67;1.33;;;;;17.18;100.00;100854.75;5100207;27;45556;-77
2023/05/10 05:17:40;;;;;;;;;1.33;0.33;;;;;17.13;100.00;100844.66;5100929;27;45366;-77
2023/05/10 05:20:06;;;;;;;;;1.33;1.33;;;;;17.10;100.00;100835.19;5100602;27;45526;-76
2023/05/10 05:22:31;;;;;;;;;1.67;1.67;;;;;17.12;100.00;100845.72;5082494;27;48102;-76
2023/05/10 05:24:58;;;;;;;;;1.33;1.33;;;;;17.01;100.00;100834.59;5100288;27;45533;-77
2023/05/10 05:27:25;;;;;;;;;1.33;1.33;;;;;17.09;100.00;100840.78;5100703;27;45359;-77
2023/05/10 05:29:53;;;;;;;;;3.33;2.00;;;;;17.08;100.00;100839.09;5100274;27;45206;-78
2023/05/10 05:32:18;;;;;;;;;2.33;2.00;;;;;17.11;100.00;100852.94;5100765;27;46552;-77
2023/05/10 05:34:46;;;;;;;;;3.33;3.33;;;;;17.07;100.00;100848.19;5081990;27;45341;-78
2023/05/10 05:37:14;;;;;;;;;4.00;2.00;;;;;17.03;100.00;100848.59;5082292;27;45367;-78
2023/05/10 05:39:39;;;;;;;;;1.33;1.33;;;;;17.13;100.00;100866.16;5100458;27;45418;-79
2023/05/10 05:42:04;;;;;;;;;3.67;1.33;;;;;17.08;100.00;100852.53;5100146;27;58216;-80
2023/05/10 05:44:29;;;;;;;;;2.67;2.00;;;;;17.15;100.00;100859.50;5099655;27;52454;-78
2023/05/10 05:46:55;;;;;;;;;2.67;2.33;;;;;17.07;100.00;100850.88;5079975;27;45460;-78
2023/05/10 05:49:20;;;;;;;;;4.67;2.00;;;;;17.10;100.00;100855.84;5081161;27;55554;-77
2023/05/10 05:51:45;;;;;;;;;1.33;1.33;;;;;17.14;100.00;100857.88;5099478;27;45443;-77
2023/05/10 05:54:11;;;;;;;;;2.00;2.00;;;;;17.09;100.00;100844.25;5082191;27;45188;-76
2023/05/10 05:56:37;;;;;;;;;4.00;3.33;;;;;17.26;100.00;100855.31;5082098;27;45247;-75
2023/05/10 05:59:03;;;;;;;;;1.00;1.00;;;;;17.27;100.00;100848.09;5081789;27;46287;-76
2023/05/10 06:01:28;;;;;;;;;2.00;2.00;;;;;17.39;100.00;100858.97;5100361;27;45612;-76
2023/05/10 06:03:54;;;;;;;;;2.67;2.00;;;;;17.39;100.00;100853.59;5100556;27;45302;-75
2023/05/10 06:06:19;;;;;;;;;1.67;1.67;;;;;17.45;100.00;100852.72;5081711;27;45437;-77
2023/05/10 06:08:44;;;;;;;;;4.67;2.00;;;;;17.52;100.00;100869.63;5097580;27;45473;-76
2023/05/10 06:11:10;;;;;;;;;1.33;1.00;;;;;17.48;100.00;100871.06;5081747;27;47578;-78
2023/05/10 06:13:35;;;;;;;;;2.67;2.67;;;;;17.45;100.00;100879.56;5099959;27;52220;-76
2023/05/10 06:16:02;;;;;;;;;2.33;2.33;;;;;17.42;100.00;100871.97;5100519;27;45291;-76
2023/05/10 06:18:27;;;;;;;;;4.33;4.33;;;;;17.40;100.00;100865.97;5100149;27;45320;-76
2023/05/10 06:20:53;;;;;;;;;8.67;8.00;;;;;17.36;100.00;100867.47;5100534;27;45318;-76
2023/05/10 06:23:18;;;;;;;;;6.00;6.00;;;;;17.40;100.00;100872.19;5105046;27;46892;-76
2023/05/10 06:25:43;;;;;;;;;6.67;6.00;;;;;17.34;100.00;100865.00;5097844;27;45314;-76
2023/05/10 06:28:09;;;;;;;;;5.00;5.00;;;;;17.42;100.00;100872.78;5085585;28;45167;-76
2023/05/10 06:30:36;;;;;;;;;3.00;3.00;;;;;17.49;100.00;100882.66;5103992;27;45401;-75
2023/05/10 06:33:01;;;;;;;;;5.00;5.00;;;;;17.40;100.00;100872.19;5102270;27;45203;-76
2023/05/10 06:35:27;;;;;;;;;4.67;4.67;;;;;17.41;100.00;100870.31;5084613;27;45348;-76
2023/05/10 06:37:53;;;;;;;;;4.67;4.67;;;;;17.41;100.00;100865.75;5103746;27;45539;-76
2023/05/10 06:40:19;;;;;;;;;4.67;4.67;;;;;17.38;100.00;100866.19;5103342;27;49167;-75
2023/05/10 06:42:45;;;;;;;;;5.00;4.33;;;;;17.45;100.00;100876.09;5103720;27;45498;-75
2023/05/10 06:45:10;;;;;;;;;8.00;5.00;;;;;17.42;100.00;100872.78;5104008;27;45350;-75
2023/05/10 06:47:35;;;;;;;;;6.00;6.00;;;;;17.38;100.00;100870.72;5104912;27;45406;-75
2023/05/10 06:50:01;;;;;;;;;9.67;8.67;;;;;17.39;100.00;100878.59;5104273;27;45454;-74
2023/05/10 06:52:26;;;;;;;;;7.00;7.00;;;;;17.45;100.00;100878.75;5085968;27;45304;-74
2023/05/10 06:54:52;;;;;;;;;6.67;6.67;;;;;17.40;100.00;100872.19;5104567;27;45337;-74
2023/05/10 06:57:17;;;;;;;;;8.33;8.33;;;;;17.53;100.00;100892.75;5104921;27;45572;-75
2023/05/10 06:59:43;;;;;;;;;5.00;5.00;;;;;17.56;100.00;100893.34;5103844;27;45867;-74
2023/05/10 07:02:08;;;;;;;;;5.67;5.67;;;;;17.58;100.00;100886.75;5087538;27;45356;-75
2023/05/10 07:04:34;;;;;;;;;7.33;5.67;;;;;17.59;100.00;100892.91;5103754;27;45275;-75
2023/05/10 07:06:59;;;;;;;;;6.00;6.00;;;;;17.56;100.00;100885.28;5107144;27;45278;-77
2023/05/10 07:09:24;;;;;;;;;7.00;6.33;;;;;17.55;100.00;100892.53;5085926;27;47589;-75
2023/05/10 07:11:50;;;;;;;;;7.00;6.67;;;;;17.59;100.00;100895.59;5103160;27;45244;-76
2023/05/10 07:14:15;;;;;;;;;7.67;6.33;;;;;17.62;100.00;100892.47;5084638;27;46791;-75
2023/05/10 07:16:40;;;;;;;;;5.33;5.33;;;;;17.59;100.00;100890.22;5098966;27;45686;-75
2023/05/10 07:19:06;;;;;;;;;7.33;7.00;;;;;17.41;100.00;100876.50;5102494;27;51038;-76
2023/05/10 07:21:31;;;;;;;;;7.67;7.33;;;;;17.49;100.00;100888.88;5103576;27;45218;-76
2023/05/10 07:23:57;;;;;;;;;7.00;7.00;;;;;17.51;100.00;100897.50;5084650;27;45302;-76
2023/05/10 07:26:23;;;;;;;;;5.33;5.00;;;;;17.51;100.00;100891.34;5102790;27;45405;-76
2023/05/10 07:28:49;;;;;;;;;5.67;4.67;;;;;17.46;100.00;100881.25;5102871;27;45337;-76
2023/05/10 07:31:14;;;;;;;;;7.00;7.00;;;;;17.49;100.00;100888.03;5104487;27;45332;-76
2023/05/10 07:33:40;;;;;;;;;5.00;5.00;;;;;17.52;100.00;100885.75;5084921;27;45253;-76
2023/05/10 07:36:05;;;;;;;;;6.67;6.67;;;;;17.60;100.00;100881.94;5104247;27;45370;-75
2023/05/10 07:38:30;;;;;;;;;7.67;7.00;;;;;17.64;100.00;100890.41;5088287;28;47985;-76
2023/05/10 07:40:56;;;;;;;;;6.00;6.00;;;;;17.65;100.00;100897.44;5090303;28;45366;-75
2023/05/10 07:43:21;;;;;;;;;5.00;4.67;;;;;17.71;100.00;100901.09;5079354;28;45276;-76
2023/05/10 07:45:47;;;;;;;;;7.00;5.00;;;;;17.69;100.00;100897.81;5066278;28;46426;-75
2023/05/10 07:48:12;;;;;;;;;6.67;6.67;;;;;17.75;100.00;100900.44;5065883;28;47673;-76
2023/05/10 07:50:38;;;;;;;;;8.67;7.67;;;;;17.80;100.00;100910.53;5064379;28;45342;-76
2023/05/10 07:53:03;;;;;;;;;8.67;7.33;;;;;17.86;100.00;100915.06;5087347;28;45376;-75
2023/05/10 07:55:28;;;;;;;;;9.67;9.33;;;;;17.91;100.00;100909.03;5068698;28;46098;-76
2023/05/10 07:57:54;;;;;;;;;8.33;7.00;;;;;17.96;100.00;100903.78;5084530;28;49770;-75
2023/05/10 08:00:20;;;;;;;;;5.67;5.67;;;;;18.10;100.00;100906.38;5063754;28;46207;-74
2023/05/10 08:02:46;;;;;;;;;9.00;8.00;;;;;18.08;100.00;100905.78;5083280;28;45249;-75
2023/05/10 08:05:12;;;;;;;;;6.67;6.33;;;;;18.08;100.00;100908.47;5084534;28;45239;-74
2023/05/10 08:07:37;;;;;;;;;9.67;9.00;;;;;18.17;100.00;100912.56;5082399;28;45346;-76
2023/05/10 08:10:03;;;;;;;;;10.00;9.00;;;;;18.18;100.00;100919.59;5082229;28;45326;-76
2023/05/10 08:12:28;;;;;;;;;10.67;10.67;;;;;18.18;100.00;100922.28;5064672;28;45488;-77
2023/05/10 08:14:54;;;;;;;;;7.33;7.33;;;;;18.15;100.00;100912.78;5081634;28;45466;-76
2023/05/10 08:17:19;;;;;;;;;6.67;6.67;;;;;18.12;100.00;100907.00;5081530;28;45348;-79
2023/05/10 08:19:47;;;;;;;;;8.67;8.00;;;;;18.14;100.00;100921.88;5062973;28;45684;-76
2023/05/10 08:22:13;;;;;;;;;6.67;6.67;;;;;18.11;100.00;100913.44;5083890;28;45332;-77
2023/05/10 08:24:38;;;;;;;;;9.00;8.67;;;;;18.07;100.00;100909.53;5081297;28;55573;-76
2023/05/10 08:27:08;;;;;;;;;10.67;9.00;;;;;18.07;100.00;100904.16;5084855;28;45342;-78
2023/05/10 08:29:33;;;;;;;;;8.67;8.00;;;;;18.04;100.00;100908.91;5081042;28;45313;-77
2023/05/10 08:31:58;;;;;;;;;7.67;6.33;;;;;18.01;100.00;100920.09;5063216;28;45309;-76
2023/05/10 08:34:24;;;;;;;;;9.67;6.00;;;;;18.04;100.00;100926.91;5063130;28;46239;-76
2023/05/10 08:36:50;;;;;;;;;7.33;6.33;;;;;17.92;100.00;100907.97;5062723;28;47170;-76
2023/05/10 08:39:16;;;;;;;;;8.33;8.33;;;;;17.92;100.00;100910.66;5081078;28;45367;-75
2023/05/10 08:41:44;;;;;;;;;8.00;8.00;;;;;17.92;100.00;100930.31;5081407;28;45374;-76
2023/05/10 08:44:10;;;;;;;;;11.00;10.00;;;;;17.84;100.00;100925.19;5063082;28;46241;-76
2023/05/10 08:46:39;;;;;;;;;7.00;6.00;;;;;17.87;100.00;100938.19;5081576;28;46749;-76
2023/05/10 08:49:07;;;;;;;;;7.00;6.67;;;;;17.77;100.00;100932.47;5081026;28;45373;-78
2023/05/10 08:51:36;;;;;;;;;5.67;4.33;;;;;17.71;100.00;100939.56;5081186;28;45268;-76
2023/05/10 08:54:03;;;;;;;;;9.33;8.67;;;;;17.56;100.00;100942.53;5081115;28;45266;-76
2023/05/10 08:56:28;;;;;;;;;8.67;7.00;;;;;17.46;100.00;100939.50;5062908;28;47168;-76
2023/05/10 08:58:54;;;;;;;;;10.00;9.00;;;;;17.39;100.00;100940.38;5065537;28;45348;-78
2023/05/10 09:01:21;;;;;;;;;12.00;11.00;;;;;17.33;100.00;100948.47;5083695;28;45245;-75
2023/05/10 09:03:48;;;;;;;;;6.67;6.00;;;;;17.23;100.00;100954.28;5080832;28;45418;-78
2023/05/10 09:06:14;;;;;;;;;6.00;6.00;;;;;17.23;100.00;100962.34;5077681;28;45401;-75
2023/05/10 09:08:41;;;;;;;;;8.00;6.33;;;;;17.18;100.00;100971.03;5063048;28;46049;-74
2023/05/10 09:11:08;;;;;;;;;4.33;4.00;;;;;17.19;100.00;100977.25;5084437;28;44645;-74
2023/05/10 09:13:35;;;;;;;;;10.33;9.33;;;;;17.19;100.00;100975.41;5082045;28;45483;-76
2023/05/10 09:16:00;;;;;;;;;8.67;8.00;;;;;17.33;100.00;100980.72;5081244;28;45323;-75
2023/05/10 09:18:26;;;;;;;;;14.00;14.00;;;;;17.42;100.00;100977.56;5082638;28;45369;-75
2023/05/10 09:20:51;;;;;;;;;13.33;13.33;;;;;17.42;100.00;100979.44;5065158;28;45370;-75
2023/05/10 09:23:17;;;;;;;;;13.67;12.33;;;;;17.47;100.00;100984.97;5063562;28;46319;-77
2023/05/10 09:25:42;;;;;;;;;8.33;7.00;;;;;17.56;100.00;100982.84;5070268;28;46530;-75
2023/05/10 09:28:09;;;;;;;;;15.00;13.00;;;;;17.62;100.00;100992.75;5087487;28;45264;-76
2023/05/10 09:30:35;;;;;;;;;14.00;13.67;;;;;17.70;100.00;100993.53;5080502;28;45391;-76
2023/05/10 09:33:01;;;;;;;;;11.33;11.00;;;;;17.73;100.00;100999.31;5061905;28;46168;-76
2023/05/10 09:35:28;;;;;;;;;16.67;16.67;;;;;17.75;100.00;100994.53;5079871;28;47875;-75
2023/05/10 09:37:55;;;;;;;;;16.67;16.33;;;;;17.77;100.00;101003.22;5062685;28;45390;-76
2023/05/10 09:40:23;;;;;;;;;21.00;19.33;;;;;17.81;100.00;101003.59;5091906;27;45380;-76
2023/05/10 09:43:02;;;;;;;;;16.00;14.67;;;;;17.88;100.00;101008.94;5082390;27;47310;-75
2023/05/10 09:45:30;;;;;;;;;16.33;15.67;;;;;17.84;100.00;101013.09;5103431;27;46473;-77
2023/05/10 09:47:57;;;;;;;;;15.00;14.33;;;;;17.89;100.00;101007.88;5102808;27;45365;-78
2023/05/10 09:50:22;;;;;;;;;17.67;16.00;;;;;17.92;100.00;101021.72;5082562;27;45304;-77
2023/05/10 09:52:52;;;;;;;;;14.00;13.67;;;;;17.96;100.00;101026.69;5098695;27;45357;-78
2023/05/10 09:55:22;;;;;;;;;15.33;14.00;;;;;17.95;100.00;101025.84;5098334;27;46026;-77
2023/05/10 09:57:48;;;;;;;;;17.33;14.00;;;;;17.93;100.00;101025.25;5100021;27;45330;-77
2023/05/10 10:00:20;;;;;;;;;19.33;17.67;;;;;17.91;100.00;101032.69;5100751;27;45255;-77
2023/05/10 10:02:55;;;;;;;;;18.00;16.00;;;;;17.82;100.00;101023.22;5099084;27;47184;-76
2023/05/10 10:05:30;;;;;;;;;22.67;21.33;;;;;17.88;100.00;101027.75;5082818;27;46321;-76
2023/05/10 10:07:57;;;;;;;;;12.67;12.00;;;;;17.88;100.00;101027.75;5098878;27;45976;-76
2023/05/10 10:10:23;;;;;;;;;19.00;16.67;;;;;17.87;100.00;101023.41;5085018;27;45256;-76
2023/05/10 10:12:48;;;;;;;;;12.00;12.00;;;;;17.93;100.00;101022.56;5083717;27;47415;-79
2023/05/10 10:15:14;;;;;;;;;16.67;15.00;;;;;17.97;100.00;101023.78;5105848;27;47500;-79
2023/05/10 10:17:39;;;;;;;;;10.67;10.67;;;;;17.94;100.00;101008.06;5083837;27;45245;-79
2023/05/10 10:20:06;;;;;;;;;15.00;15.00;;;;;17.96;100.00;101018.59;5086786;27;45276;-81
2023/05/10 10:22:31;;;;;;;;;14.67;14.67;;;;;18.07;100.00;101022.47;5105399;27;46389;-76
2023/05/10 10:24:57;;;;;;;;;18.00;17.67;;;;;18.11;100.00;101029.09;5107333;27;45275;-76
2023/05/10 10:27:33;;;;;;;;;19.00;19.00;;;;;18.19;100.00;101031.50;5101714;27;45405;-78
2023/05/10 10:30:13;;;;;;;;;17.67;17.67;;;;;18.27;100.00;101025.03;5097335;27;44721;-76
2023/05/10 10:33:03;;;;;;;;;16.33;16.33;;;;;18.37;100.00;101021.84;5086857;27;45396;-79
2023/05/10 10:35:32;;;;;;;;;17.33;15.67;;;;;18.41;100.00;101006.94;5089161;28;47049;-78
2023/05/10 10:37:57;;;;;;;;;21.00;20.00;;;;;18.65;100.00;101025.97;5109286;27;45337;-78
2023/05/10 10:40:24;;;;;;;;;16.00;16.00;;;;;18.72;100.00;101029.41;5106068;27;45243;-76
2023/05/10 10:42:50;;;;;;;;;18.67;16.67;;;;;18.80;100.00;101025.59;5107003;27;45248;-76
2023/05/10 10:45:15;;;;;;;;;16.33;15.33;;;;;18.82;100.00;101017.31;5110018;27;45383;-75
2023/05/10 10:47:42;;;;;;;;;15.33;14.33;;;;;18.85;100.00;101012.28;5108761;27;45375;-76
2023/05/10 10:50:09;;;;;;;;;19.00;15.33;;;;;18.95;100.00;101011.78;5109219;27;45309;-75
2023/05/10 10:52:36;;;;;;;;;16.00;14.67;;;;;19.02;100.00;101033.25;5107646;27;45222;-76
2023/05/10 10:55:09;;;;;;;;;14.00;13.33;;;;;19.04;100.00;101029.28;5111992;27;45320;-77
2023/05/10 10:57:40;;;;;;;;;20.00;17.33;;;;;19.04;100.00;101031.97;5093633;27;45904;-77
2023/05/10 11:00:31;;;;;;;;;13.67;13.67;;;;;19.05;100.00;101028.25;5097645;27;44602;-76
2023/05/10 11:03:07;;;;;;;;;17.67;17.67;;;;;19.08;100.00;101026.16;5093248;27;46212;-77
2023/05/10 11:05:32;;;;;;;;;18.00;15.67;;;;;19.05;100.00;101022.84;5108467;27;45860;-76
2023/05/10 11:07:59;;;;;;;;;24.33;22.00;;;;;19.05;100.00;101008.56;5112541;27;45156;-76
2023/05/10 11:10:26;;;;;;;;;23.00;21.00;;;;;19.08;100.00;101023.47;5113669;27;45156;-76
2023/05/10 11:13:04;;;;;;;;;16.67;15.33;;;;;19.09;100.00;101025.13;5113700;27;46461;-77
2023/05/10 11:15:38;;;;;;;;;11.00;11.00;;;;;19.16;100.00;101028.56;5113531;27;45406;-76